Time;durP1;ratioP1;P1;durP2;ratioP2;P2;SDS_P1;SDS_P2;PMS_P1;PMS_P2;Temp;Humidity;BMP_temperature;BMP_pressure;BME280_temperature;BME280_humidity;BME280_pressure;Samples;Min_cycle;Max_cycle;Signal;HPM_P1;HPM_P2
2021/09/24 00:00:57;;;;;;;2.95;2.55;;;;;;;12.02;40.70;100167.16;5013908;28;20477;-78
2021/09/24 00:03:23;;;;;;;3.60;2.75;;;;;;;11.99;40.90;100170.06;5016798;28;20496;-79
2021/09/24 00:05:49;;;;;;;4.57;2.80;;;;;;;12.03;41.03;100169.72;4984766;28;20053;-82
2021/09/24 00:08:15;;;;;;;3.67;2.42;;;;;;;11.98;40.63;100176.38;5034959;28;20057;-82
2021/09/24 00:10:41;;;;;;;6.38;2.67;;;;;;;11.91;40.85;100176.81;5033664;28;20061;-81
2021/09/24 00:13:07;;;;;;;6.22;2.80;;;;;;;11.91;40.84;100182.19;5030531;28;20075;-82
2021/09/24 00:15:33;;;;;;;6.20;3.03;;;;;;;11.96;40.76;100172.94;4982538;28;20556;-86
2021/09/24 00:17:59;;;;;;;4.65;2.78;;;;;;;11.93;41.21;100181.22;5013528;28;20045;-84
2021/09/24 00:20:25;;;;;;;2.50;2.30;;;;;;;12.00;40.77;100177.13;5015102;28;20050;-84
2021/09/24 00:22:51;;;;;;;6.18;2.78;;;;;;;12.00;40.89;100187.81;5013836;28;20042;-86
2021/09/24 00:25:16;;;;;;;7.57;3.03;;;;;;;11.98;41.01;100187.94;5014976;28;20065;-83
2021/09/24 00:27:42;;;;;;;2.88;2.33;;;;;;;11.88;40.76;100190.47;5014815;28;20045;-83
2021/09/24 00:30:09;;;;;;;5.28;2.50;;;;;;;11.79;41.14;100204.47;5013421;28;20088;-85
2021/09/24 00:32:35;;;;;;;7.10;2.92;;;;;;;11.90;40.83;100196.53;4997261;28;20081;-86
2021/09/24 00:35:07;;;;;;;8.32;2.75;;;;;;;11.86;41.07;100200.41;4983325;28;20125;-87
2021/09/24 00:37:33;;;;;;;5.72;2.30;;;;;;;11.83;41.28;100199.75;5014541;28;20052;-87
2021/09/24 00:39:59;;;;;;;4.20;2.70;;;;;;;11.91;40.83;100197.41;5013481;28;20054;-82
2021/09/24 00:42:25;;;;;;;3.83;2.30;;;;;;;11.96;40.69;100210.47;5029819;28;20123;-80
2021/09/24 00:44:51;;;;;;;3.97;2.53;;;;;;;11.90;41.34;100217.97;4996943;28;20045;-79
2021/09/24 00:47:18;;;;;;;6.93;2.83;;;;;;;11.95;40.92;100220.31;5013715;28;20102;-79
2021/09/24 00:49:44;;;;;;;4.07;2.33;;;;;;;11.91;40.64;100214.31;4996644;28;20142;-78
2021/09/24 00:52:10;;;;;;;4.25;2.55;;;;;;;11.95;40.67;100216.78;5014209;28;20045;-79
2021/09/24 00:54:36;;;;;;;3.20;2.42;;;;;;;11.81;40.75;100207.91;5014326;28;20054;-77
2021/09/24 00:57:03;;;;;;;6.65;2.95;;;;;;;11.86;40.95;100215.63;5029493;28;20054;-78
2021/09/24 00:59:29;;;;;;;5.15;2.83;;;;;;;11.97;40.77;100222.91;4996395;28;20072;-78
2021/09/24 01:01:56;;;;;;;5.38;2.55;;;;;;;11.94;40.63;100218.63;4980200;28;20049;-77
2021/09/24 01:04:22;;;;;;;5.00;2.55;;;;;;;11.94;40.73;100223.13;4980383;28;20042;-77
2021/09/24 01:06:48;;;;;;;4.40;2.70;;;;;;;11.96;40.51;100231.91;5011869;28;20052;-77
2021/09/24 01:09:14;;;;;;;4.32;2.50;;;;;;;11.96;40.46;100229.22;5012651;28;20505;-77
2021/09/24 01:11:40;;;;;;;7.35;2.42;;;;;;;11.94;40.35;100239.19;5012864;28;20050;-77
2021/09/24 01:14:06;;;;;;;2.70;2.42;;;;;;;11.91;40.19;100227.72;5029103;28;20120;-77
2021/09/24 01:16:32;;;;;;;6.70;2.90;;;;;;;12.01;40.21;100235.13;5026133;28;20072;-78
2021/09/24 01:18:58;;;;;;;8.80;2.88;;;;;;;11.89;40.28;100240.38;5032916;28;20496;-78
2021/09/24 01:21:24;;;;;;;3.03;2.25;;;;;;;11.93;40.52;100240.19;5032295;28;20073;-76
2021/09/24 01:23:50;;;;;;;9.43;2.67;;;;;;;11.95;40.15;100233.72;5032302;28;20050;-77
2021/09/24 01:26:15;;;;;;;6.95;2.63;;;;;;;11.95;40.23;100224.84;5033476;28;20045;-77
2021/09/24 01:28:56;;;;;;;3.25;2.55;;;;;;;12.01;40.15;100213.69;5018311;28;20449;-77
2021/09/24 01:31:22;;;;;;;9.93;3.05;;;;;;;12.05;40.23;100221.38;5016097;28;20048;-79
2021/09/24 01:33:48;;;;;;;6.90;2.60;;;;;;;11.99;40.19;100211.09;5032199;28;20041;-79
2021/09/24 01:36:15;;;;;;;5.15;2.95;;;;;;;11.91;40.50;100208.97;5033533;28;20046;-80
2021/09/24 01:38:40;;;;;;;7.10;3.30;;;;;;;11.98;40.16;100208.53;5032253;28;20045;-82
2021/09/24 01:41:06;;;;;;;5.07;3.00;;;;;;;12.02;40.09;100205.53;5033227;28;20052;-81
2021/09/24 01:43:33;;;;;;;8.68;2.70;;;;;;;12.03;40.16;100209.06;4999702;28;20046;-83
2021/09/24 01:45:59;;;;;;;5.28;2.85;;;;;;;12.06;40.26;100215.03;5015700;28;20041;-82
2021/09/24 01:48:25;;;;;;;10.02;2.42;;;;;;;12.01;40.04;100202.97;5016110;28;20045;-82
2021/09/24 01:50:50;;;;;;;8.20;2.70;;;;;;;11.99;39.77;100204.88;5033144;28;20408;-84
2021/09/24 01:53:16;;;;;;;7.65;2.88;;;;;;;11.99;39.86;100192.34;5033033;28;20088;-82
2021/09/24 01:55:42;;;;;;;8.68;2.60;;;;;;;12.04;39.92;100190.19;5031867;28;20037;-83
2021/09/24 01:58:08;;;;;;;6.55;2.85;;;;;;;12.02;39.80;100193.94;5032996;28;20581;-83
2021/09/24 02:00:34;;;;;;;6.32;2.67;;;;;;;11.94;40.21;100189.16;5032919;28;20475;-83
2021/09/24 02:03:00;;;;;;;4.40;2.50;;;;;;;11.87;40.12;100194.09;5033491;28;20057;-82
2021/09/24 02:05:25;;;;;;;4.78;2.40;;;;;;;11.87;39.88;100186.03;5015599;28;20076;-83
2021/09/24 02:07:51;;;;;;;2.88;2.22;;;;;;;11.86;39.75;100191.53;5015425;28;20053;-83
2021/09/24 02:10:17;;;;;;;4.15;2.50;;;;;;;11.86;39.52;100184.34;5016357;28;20053;-82
2021/09/24 02:12:43;;;;;;;4.75;2.80;;;;;;;11.94;39.61;100193.66;5032130;28;20038;-82
2021/09/24 02:15:10;;;;;;;8.15;2.50;;;;;;;11.91;39.58;100200.06;5031907;28;20069;-83
2021/09/24 02:17:36;;;;;;;7.07;2.90;;;;;;;11.82;39.38;100193.53;5031512;28;20045;-84
2021/09/24 02:20:02;;;;;;;2.70;2.30;;;;;;;11.79;39.86;100212.50;5031526;28;20566;-85
2021/09/24 02:22:29;;;;;;;3.30;2.38;;;;;;;11.85;39.92;100213.94;5032847;28;20124;-84
2021/09/24 02:24:54;;;;;;;4.82;2.63;;;;;;;11.90;39.72;100207.25;5031556;28;20106;-82
2021/09/24 02:27:20;;;;;;;3.90;2.65;;;;;;;11.81;39.96;100210.59;5032902;28;20081;-83
2021/09/24 02:29:46;;;;;;;3.72;2.50;;;;;;;11.70;39.88;100210.50;5033435;28;20098;-84
2021/09/24 02:32:12;;;;;;;8.25;2.60;;;;;;;11.78;40.05;100210.78;5010449;28;20048;-85
2021/09/24 02:34:38;;;;;;;6.88;3.15;;;;;;;11.85;39.81;100203.22;5015038;28;20507;-85
2021/09/24 02:37:03;;;;;;;8.18;2.72;;;;;;;11.84;39.85;100220.22;5031408;28;20041;-82
2021/09/24 02:39:30;;;;;;;5.35;2.53;;;;;;;11.86;39.62;100221.84;5031424;28;20061;-80
2021/09/24 02:41:56;;;;;;;3.95;2.72;;;;;;;11.92;39.49;100231.25;5031662;28;20037;-82
2021/09/24 02:44:22;;;;;;;3.42;2.30;;;;;;;11.91;39.61;100229.53;5031649;28;20114;-83
2021/09/24 02:46:47;;;;;;;7.28;2.47;;;;;;;11.84;39.82;100218.41;5034654;28;20041;-83
2021/09/24 02:49:13;;;;;;;7.55;2.78;;;;;;;11.79;39.60;100207.13;4998532;28;20042;-85
2021/09/24 02:51:39;;;;;;;9.82;2.90;;;;;;;11.76;40.06;100212.72;5031922;28;20073;-81
2021/09/24 02:54:05;;;;;;;7.07;2.50;;;;;;;11.76;40.12;100220.75;5032874;28;20087;-81
2021/09/24 02:56:31;;;;;;;8.43;2.60;;;;;;;11.87;39.80;100223.56;5033182;28;20168;-82
2021/09/24 02:58:57;;;;;;;6.43;2.72;;;;;;;11.97;39.58;100217.56;4998696;28;20037;-81
2021/09/24 03:01:23;;;;;;;8.18;2.83;;;;;;;11.98;39.42;100219.25;5031902;28;20499;-81
2021/09/24 03:03:49;;;;;;;6.13;2.55;;;;;;;12.04;39.41;100208.09;4998748;28;20072;-81
2021/09/24 03:06:14;;;;;;;5.07;2.50;;;;;;;12.01;39.05;100192.25;5032120;28;20069;-80
2021/09/24 03:08:40;;;;;;;7.82;2.50;;;;;;;12.06;39.32;100195.44;5032492;28;20053;-91
2021/09/24 03:11:06;;;;;;;5.57;2.72;;;;;;;12.17;39.19;100198.19;5014626;28;20080;-81
2021/09/24 03:13:32;;;;;;;8.65;2.70;;;;;;;12.16;39.36;100188.44;5031333;28;20515;-84
2021/09/24 03:15:59;;;;;;;4.95;2.25;;;;;;;12.18;39.24;100191.00;4995240;28;20029;-80
2021/09/24 03:18:25;;;;;;;3.25;2.40;;;;;;;12.22;39.25;100201.38;5022174;28;20060;-82
2021/09/24 03:20:52;;;;;;;10.38;2.60;;;;;;;12.26;39.03;100200.22;5014845;28;20512;-84
2021/09/24 03:23:20;;;;;;;6.05;2.80;;;;;;;12.22;38.80;100212.09;5031499;28;20080;-83
2021/09/24 03:25:47;;;;;;;6.22;3.33;;;;;;;12.18;38.96;100210.63;5032548;28;20107;-84
2021/09/24 03:28:14;;;;;;;10.32;3.05;;;;;;;12.28;38.38;100195.59;5014519;28;20527;-80
2021/09/24 03:30:40;;;;;;;8.10;2.65;;;;;;;12.32;38.65;100191.69;5033929;28;20073;-80
2021/09/24 03:33:06;;;;;;;6.05;2.25;;;;;;;12.36;38.69;100186.97;5002341;28;20049;-83
2021/09/24 03:35:32;;;;;;;5.07;2.13;;;;;;;12.45;37.91;100196.16;5018241;28;20041;-84
2021/09/24 03:37:58;;;;;;;4.72;2.50;;;;;;;12.45;38.53;100196.16;5018484;28;20038;-90
2021/09/24 03:40:23;;;;;;;6.78;2.63;;;;;;;12.23;38.42;100192.41;5038428;28;20045;-84
2021/09/24 03:42:49;;;;;;;5.03;2.33;;;;;;;12.20;38.68;100191.75;5035621;28;20129;-83
2021/09/24 03:45:15;;;;;;;8.45;2.38;;;;;;;12.30;38.53;100190.13;5018208;28;20485;-82
2021/09/24 03:47:41;;;;;;;8.65;2.35;;;;;;;12.45;38.19;100197.03;5034461;28;20385;-80
2021/09/24 03:50:08;;;;;;;10.45;2.72;;;;;;;12.34;38.29;100203.19;5034313;28;20121;-83
2021/09/24 03:52:34;;;;;;;3.75;2.50;;;;;;;12.38;38.20;100207.34;5019453;28;20520;-84
2021/09/24 03:55:00;;;;;;;14.18;3.00;;;;;;;12.44;38.20;100210.53;5034371;28;20076;-94
2021/09/24 03:57:26;;;;;;;10.02;2.45;;;;;;;12.53;38.18;100215.22;5030166;28;20069;-80
2021/09/24 03:59:51;;;;;;;7.53;2.67;;;;;;;12.59;38.00;100212.06;5014516;28;20127;-80
2021/09/24 04:02:17;;;;;;;5.63;2.30;;;;;;;12.64;37.71;100212.59;5032668;28;20104;-80
2021/09/24 04:04:43;;;;;;;3.75;2.40;;;;;;;12.71;37.51;100219.19;5030598;28;20046;-89
2021/09/24 04:07:09;;;;;;;4.18;2.53;;;;;;;12.67;37.53;100217.72;5031644;28;20081;-82
2021/09/24 04:09:36;;;;;;;6.20;2.80;;;;;;;12.63;37.75;100221.59;5035429;28;20536;-83
2021/09/24 04:12:02;;;;;;;7.80;2.60;;;;;;;12.75;37.54;100236.81;5014449;28;20413;-80
2021/09/24 04:14:28;;;;;;;4.32;2.50;;;;;;;12.81;37.72;100235.47;5014078;28;20053;-82
2021/09/24 04:16:54;;;;;;;2.95;2.40;;;;;;;12.83;37.31;100225.50;5030454;28;20038;-83
2021/09/24 04:19:21;;;;;;;4.40;2.42;;;;;;;12.89;37.63;100217.81;5030386;28;20044;-85
2021/09/24 04:21:47;;;;;;;8.55;2.50;;;;;;;12.92;37.39;100218.56;4997658;28;20053;-84
2021/09/24 04:24:13;;;;;;;6.40;2.50;;;;;;;12.67;37.92;100215.03;5017234;28;20050;-85
2021/09/24 04:26:39;;;;;;;9.93;2.58;;;;;;;12.75;37.97;100215.34;5016272;28;20054;-86
2021/09/24 04:29:07;;;;;;;17.80;2.63;;;;;;;12.92;37.94;100214.06;4997917;28;20042;-84
2021/09/24 04:31:34;;;;;;;10.10;3.05;;;;;;;12.77;38.13;100202.66;5013961;28;20045;-87
2021/09/24 04:34:00;;;;;;;11.13;3.25;;;;;;;12.98;37.52;100215.44;4995478;28;20050;-83
2021/09/24 04:36:26;;;;;;;8.23;3.00;;;;;;;13.13;37.72;100216.94;5014639;28;20076;-83
2021/09/24 04:38:52;;;;;;;9.00;2.38;;;;;;;13.22;37.50;100208.16;5014868;28;20077;-85
2021/09/24 04:41:18;;;;;;;6.43;2.78;;;;;;;13.24;36.88;100206.25;4997227;28;20065;-82
2021/09/24 04:43:44;;;;;;;13.70;3.10;;;;;;;13.21;37.05;100195.72;5014238;28;20141;-83
2021/09/24 04:46:10;;;;;;;27.40;2.90;;;;;;;13.14;37.12;100199.84;5014035;28;20441;-83
2021/09/24 04:48:36;;;;;;;5.90;2.22;;;;;;;13.09;37.29;100192.16;5029974;28;20397;-83
2021/09/24 04:51:04;;;;;;;19.20;2.97;;;;;;;12.98;37.23;100191.28;5015035;28;20042;-83
2021/09/24 04:53:30;;;;;;;17.60;2.97;;;;;;;12.90;37.47;100205.28;4994935;28;20141;-82
2021/09/24 04:55:56;;;;;;;59.38;4.20;;;;;;;12.89;37.64;100200.88;5010664;28;20635;-83
2021/09/24 04:58:22;;;;;;;12.57;2.70;;;;;;;13.02;37.13;100211.53;5011848;28;20045;-81
2021/09/24 05:00:49;;;;;;;109.30;7.38;;;;;;;13.11;37.09;100194.72;5012470;28;20084;-84
2021/09/24 05:03:16;;;;;;;117.22;8.10;;;;;;;13.27;37.05;100181.00;4995221;28;20096;-83
2021/09/24 05:05:42;;;;;;;23.85;2.95;;;;;;;13.46;36.62;100172.34;5011500;28;20049;-83
2021/09/24 05:08:08;;;;;;;23.98;2.60;;;;;;;13.44;36.33;100174.31;5012656;28;20065;-83
2021/09/24 05:10:33;;;;;;;10.38;2.63;;;;;;;13.53;36.34;100181.63;5013209;28;20140;-83
2021/09/24 05:12:59;;;;;;;21.67;3.03;;;;;;;13.24;36.65;100176.72;5012900;28;20081;-84
2021/09/24 05:15:27;;;;;;;7.07;2.45;;;;;;;13.35;36.38;100170.50;5012886;28;20538;-83
2021/09/24 05:17:53;;;;;;;8.70;2.53;;;;;;;13.39;36.44;100171.09;5028958;28;20064;-83
2021/09/24 05:20:19;;;;;;;9.40;2.75;;;;;;;13.34;36.64;100172.34;5012771;28;20048;-84
2021/09/24 05:22:45;;;;;;;4.55;2.40;;;;;;;13.53;36.21;100165.50;5012839;28;20511;-84
2021/09/24 05:25:11;;;;;;;12.52;2.35;;;;;;;13.25;36.28;100162.31;5012765;28;20508;-84
2021/09/24 05:27:37;;;;;;;9.80;2.60;;;;;;;13.32;36.65;100150.13;5012359;28;20079;-83
2021/09/24 05:30:04;;;;;;;15.15;2.75;;;;;;;13.29;36.49;100166.47;5012481;28;20070;-85
2021/09/24 05:32:30;;;;;;;12.43;2.38;;;;;;;13.33;36.14;100178.69;4996140;28;20076;-83
2021/09/24 05:34:56;;;;;;;6.05;2.42;;;;;;;13.44;36.30;100171.63;5012483;28;20483;-83
2021/09/24 05:37:22;;;;;;;4.47;2.30;;;;;;;13.50;35.67;100174.69;5013626;28;20552;-86
2021/09/24 05:39:48;;;;;;;5.32;2.30;;;;;;;13.65;35.50;100183.34;5028677;28;20124;-84
2021/09/24 05:42:14;;;;;;;4.47;2.20;;;;;;;13.46;35.65;100199.19;4984798;28;20057;-83
2021/09/24 05:44:40;;;;;;;7.07;2.40;;;;;;;13.26;35.78;100185.50;4979966;28;20076;-83
2021/09/24 05:47:06;;;;;;;13.90;2.90;;;;;;;13.37;35.28;100179.31;5028879;28;20049;-85
2021/09/24 05:49:32;;;;;;;10.45;3.25;;;;;;;13.46;35.03;100172.34;4980579;28;20576;-85
2021/09/24 05:51:59;;;;;;;8.80;2.10;;;;;;;13.42;34.82;100176.25;5030246;28;20140;-84
2021/09/24 05:54:25;;;;;;;11.93;2.80;;;;;;;13.34;35.06;100169.66;4996941;28;20045;-83
2021/09/24 05:56:55;;;;;;;5.93;2.15;;;;;;;13.42;34.88;100177.09;5021744;28;20042;-84
2021/09/24 05:59:22;;;;;;;6.00;2.20;;;;;;;13.45;34.75;100190.28;4965489;28;20045;-83
2021/09/24 06:01:48;;;;;;;6.28;1.90;;;;;;;13.46;34.51;100199.19;5014080;28;20516;-84
2021/09/24 06:04:19;;;;;;;5.05;2.47;;;;;;;13.46;34.52;100200.06;5001954;28;20552;-85
2021/09/24 06:06:45;;;;;;;6.82;2.10;;;;;;;13.49;34.38;100190.91;5015561;28;20135;-85
2021/09/24 06:09:11;;;;;;;6.15;1.90;;;;;;;13.40;34.86;100178.22;5011787;28;20054;-84
2021/09/24 06:11:37;;;;;;;6.80;2.03;;;;;;;13.46;34.15;100151.72;4995786;28;20460;-84
2021/09/24 06:14:03;;;;;;;10.70;2.45;;;;;;;13.45;34.64;100150.00;4995654;28;20459;-83
2021/09/24 06:16:29;;;;;;;11.75;2.22;;;;;;;13.51;34.57;100156.75;5028380;28;20038;-84
2021/09/24 06:18:55;;;;;;;5.22;1.77;;;;;;;13.52;34.29;100169.19;5013125;28;20404;-83
2021/09/24 06:21:21;;;;;;;11.38;2.30;;;;;;;13.38;34.19;100169.41;5013063;28;20046;-83
2021/09/24 06:23:47;;;;;;;3.15;1.70;;;;;;;13.43;33.89;100153.81;5011797;28;20046;-83
2021/09/24 06:26:13;;;;;;;8.80;2.00;;;;;;;13.39;34.19;100149.63;5028185;28;20542;-83
2021/09/24 06:28:39;;;;;;;7.65;2.03;;;;;;;13.27;34.22;100136.19;5012175;28;20045;-84
2021/09/24 06:31:08;;;;;;;3.20;2.05;;;;;;;13.29;34.16;100141.47;5015086;28;20480;-84
2021/09/24 06:33:35;;;;;;;9.70;2.40;;;;;;;13.40;33.98;100140.63;5012501;28;20508;-84
2021/09/24 06:36:01;;;;;;;4.75;2.38;;;;;;;13.42;33.96;100135.97;5012747;28;20116;-84
2021/09/24 06:38:27;;;;;;;13.52;2.50;;;;;;;13.51;34.33;100137.94;4979827;28;20046;-83
2021/09/24 06:40:53;;;;;;;12.23;3.97;;;;;;;13.62;33.70;100139.78;4979270;28;20100;-82
2021/09/24 06:43:19;;;;;;;14.95;2.97;;;;;;;13.73;33.58;100143.31;4996000;28;20042;-83
2021/09/24 06:45:45;;;;;;;6.40;3.50;;;;;;;13.56;33.82;100135.72;5013087;28;20418;-84
2021/09/24 06:48:10;;;;;;;10.52;3.10;;;;;;;13.53;33.50;100152.09;4979841;28;20053;-84
2021/09/24 06:50:36;;;;;;;9.07;2.30;;;;;;;13.43;33.68;100140.38;4995767;28;20042;-83
2021/09/24 06:53:03;;;;;;;10.75;3.00;;;;;;;13.48;33.25;100144.41;5012039;28;20386;-84
2021/09/24 06:55:29;;;;;;;8.50;2.75;;;;;;;13.49;33.01;100145.25;4995367;28;20073;-84
2021/09/24 06:57:55;;;;;;;5.00;2.42;;;;;;;13.63;33.39;100146.84;4995737;28;20073;-83
2021/09/24 07:00:21;;;;;;;13.73;3.03;;;;;;;13.66;33.38;100155.50;5028213;28;20057;-84
2021/09/24 07:02:47;;;;;;;15.57;4.10;;;;;;;13.80;33.79;100155.28;4995225;28;20508;-83
2021/09/24 07:05:13;;;;;;;12.30;2.90;;;;;;;13.88;33.90;100161.81;5014137;28;20132;-84
2021/09/24 07:07:39;;;;;;;20.17;3.20;;;;;;;13.91;33.85;100157.06;4999384;28;20054;-82
2021/09/24 07:10:06;;;;;;;7.60;2.40;;;;;;;13.94;33.71;100146.06;5015271;28;20120;-84
2021/09/24 07:12:32;;;;;;;6.18;2.35;;;;;;;14.07;33.92;100151.31;5015804;28;20042;-85
2021/09/24 07:14:58;;;;;;;6.38;2.85;;;;;;;13.95;34.42;100160.34;5017017;28;20103;-82
2021/09/24 07:17:24;;;;;;;6.63;2.90;;;;;;;14.09;34.68;100162.78;5015319;28;20048;-85
2021/09/24 07:19:50;;;;;;;8.40;2.83;;;;;;;14.10;34.36;100167.19;5018890;28;20497;-85
2021/09/24 07:22:16;;;;;;;3.20;2.40;;;;;;;14.08;33.39;100153.03;4986916;28;20041;-85
2021/09/24 07:24:42;;;;;;;2.83;2.33;;;;;;;14.07;33.08;100159.38;5020276;28;20080;-84
2021/09/24 07:27:08;;;;;;;3.08;2.40;;;;;;;14.08;33.12;100134.19;5003042;28;20425;-83
2021/09/24 07:29:33;;;;;;;6.25;2.10;;;;;;;14.07;33.15;100151.31;5019499;28;20069;-83
2021/09/24 07:31:59;;;;;;;5.55;2.65;;;;;;;14.26;33.35;100151.50;5000396;28;20046;-83
2021/09/24 07:34:25;;;;;;;6.32;2.58;;;;;;;14.34;32.31;100153.56;5018107;28;20046;-84
2021/09/24 07:36:51;;;;;;;3.95;2.13;;;;;;;14.48;32.85;100165.84;5015646;28;20052;-84
2021/09/24 07:39:17;;;;;;;6.63;2.58;;;;;;;14.65;33.18;100167.19;5016112;28;20092;-83
2021/09/24 07:41:43;;;;;;;8.48;3.08;;;;;;;14.81;33.29;100156.81;5017294;28;20056;-85
2021/09/24 07:44:09;;;;;;;5.55;3.20;;;;;;;14.80;33.27;100155.97;5015929;28;20061;-84
2021/09/24 07:46:35;;;;;;;3.30;2.70;;;;;;;14.79;33.46;100154.28;4999657;28;20189;-85
2021/09/24 07:49:03;;;;;;;9.90;2.90;;;;;;;14.67;33.94;100144.56;4998651;28;20042;-83
2021/09/24 07:51:29;;;;;;;5.97;2.95;;;;;;;14.72;33.71;100163.84;4998162;28;20046;-84
2021/09/24 07:53:55;;;;;;;8.95;2.67;;;;;;;14.71;34.24;100156.75;5014357;28;20390;-85
2021/09/24 07:56:21;;;;;;;5.03;2.88;;;;;;;14.55;34.57;100169.78;5014782;28;20460;-84
2021/09/24 07:58:46;;;;;;;10.18;3.78;;;;;;;14.47;34.17;100158.78;5014268;28;20046;-84
2021/09/24 08:01:12;;;;;;;7.10;4.15;;;;;;;14.59;34.20;100160.47;4981714;28;20042;-83
2021/09/24 08:03:38;;;;;;;7.38;3.95;;;;;;;14.49;35.82;100163.09;4981515;28;20420;-83
2021/09/24 08:06:04;;;;;;;10.65;5.15;;;;;;;14.46;35.50;100149.00;5015378;28;20424;-84
2021/09/24 08:08:30;;;;;;;14.18;6.50;;;;;;;14.77;35.26;100150.84;5015307;28;20148;-83
2021/09/24 08:10:56;;;;;;;23.98;6.85;;;;;;;14.88;35.90;100143.69;5015585;28;20045;-83
2021/09/24 08:13:24;;;;;;;10.02;5.43;;;;;;;14.87;35.03;100150.06;5014451;28;20504;-83
2021/09/24 08:15:52;;;;;;;8.65;4.63;;;;;;;14.71;35.67;100140.63;4997303;28;20424;-83
2021/09/24 08:18:18;;;;;;;10.15;5.47;;;;;;;14.91;34.74;100140.75;4997627;28;20393;-85
2021/09/24 08:20:44;;;;;;;11.88;5.57;;;;;;;14.91;34.91;100132.69;4997848;28;20061;-83
2021/09/24 08:23:10;;;;;;;19.00;6.18;;;;;;;14.96;35.31;100127.75;4997619;28;20077;-86
2021/09/24 08:25:36;;;;;;;10.38;4.80;;;;;;;15.07;35.47;100124.97;5015097;28;20049;-84
2021/09/24 08:28:03;;;;;;;8.25;4.82;;;;;;;14.95;35.44;100126.03;5015064;28;20042;-83
2021/09/24 08:30:29;;;;;;;7.35;4.72;;;;;;;14.87;35.36;100117.78;4981285;28;20033;-83
2021/09/24 08:32:55;;;;;;;12.30;5.30;;;;;;;14.81;35.30;100116.44;5014769;28;20038;-84
2021/09/24 08:35:22;;;;;;;10.68;4.93;;;;;;;14.78;36.09;100112.19;4997383;28;20511;-84
2021/09/24 08:37:49;;;;;;;11.27;5.78;;;;;;;14.94;34.92;100118.97;5030107;28;20485;-84
2021/09/24 08:40:18;;;;;;;13.43;5.63;;;;;;;15.00;34.58;100118.41;5013639;28;20050;-84
2021/09/24 08:42:45;;;;;;;17.50;6.78;;;;;;;15.06;34.79;100118.75;5029532;28;20033;-83
2021/09/24 08:45:23;;;;;;;8.93;4.95;;;;;;;14.93;35.52;100107.34;4996869;28;20042;-84
2021/09/24 08:47:50;;;;;;;12.65;5.97;;;;;;;14.62;36.55;100109.09;5013256;28;20073;-83
2021/09/24 08:50:16;;;;;;;41.90;8.35;;;;;;;14.76;37.22;100106.09;5013191;28;20099;-83
2021/09/24 08:52:42;;;;;;;14.68;7.25;;;;;;;14.77;36.84;100102.41;4998166;28;20046;-83
2021/09/24 08:55:09;;;;;;;19.30;7.88;;;;;;;14.79;37.04;100108.50;5014900;28;20069;-83
2021/09/24 08:57:35;;;;;;;17.80;7.88;;;;;;;14.90;38.02;100101.38;4997096;28;20042;-83
2021/09/24 09:00:03;;;;;;;15.82;8.15;;;;;;;15.05;36.24;100100.91;4997224;28;20436;-82
2021/09/24 09:02:55;;;;;;;13.73;7.60;;;;;;;15.20;35.79;100092.47;5015702;28;20547;-84
2021/09/24 09:05:21;;;;;;;12.55;7.05;;;;;;;15.21;36.40;100099.56;5021498;28;20048;-83
2021/09/24 09:07:47;;;;;;;17.27;7.32;;;;;;;15.15;36.29;100089.31;5030792;28;20073;-83
2021/09/24 09:10:13;;;;;;;9.23;5.65;;;;;;;15.08;36.27;100067.44;5014467;28;20133;-83
2021/09/24 09:12:39;;;;;;;13.75;5.95;;;;;;;15.33;36.27;100076.06;5014127;28;20046;-83
2021/09/24 09:15:13;;;;;;;7.72;4.82;;;;;;;15.49;36.63;100073.72;4996363;28;20063;-83
2021/09/24 09:17:41;;;;;;;5.72;3.75;;;;;;;15.60;36.14;100070.91;5013437;28;20049;-84
2021/09/24 09:20:12;;;;;;;9.85;3.75;;;;;;;15.78;35.79;100080.09;5013054;28;20045;-84
2021/09/24 09:22:38;;;;;;;7.85;3.70;;;;;;;15.87;35.79;100081.13;4996547;28;20050;-84
2021/09/24 09:25:05;;;;;;;6.28;3.60;;;;;;;15.95;35.55;100075.88;5012391;28;20037;-83
2021/09/24 09:27:31;;;;;;;10.65;3.90;;;;;;;15.92;35.96;100059.13;4995303;28;20545;-84
2021/09/24 09:30:11;;;;;;;8.70;3.97;;;;;;;15.82;35.39;100056.41;4996152;28;20057;-84
2021/09/24 09:32:42;;;;;;;7.30;3.85;;;;;;;16.18;35.30;100052.19;5013024;28;20046;-82
2021/09/24 09:35:08;;;;;;;7.03;4.13;;;;;;;16.49;34.94;100046.66;5013881;28;20114;-83
2021/09/24 09:37:35;;;;;;;7.78;4.28;;;;;;;16.52;34.29;100051.75;5012506;28;20100;-84
2021/09/24 09:40:21;;;;;;;7.78;3.95;;;;;;;16.80;34.12;100046.47;5029345;28;20046;-83
2021/09/24 09:42:47;;;;;;;6.60;3.42;;;;;;;16.73;34.17;100052.44;5013802;28;20563;-84
2021/09/24 09:45:15;;;;;;;7.35;3.95;;;;;;;16.82;34.19;100033.69;5012349;28;20078;-84
2021/09/24 09:47:42;;;;;;;6.00;3.35;;;;;;;17.11;33.79;100033.59;4996054;28;20050;-84
2021/09/24 09:50:12;;;;;;;6.65;3.80;;;;;;;17.27;33.77;100035.69;4996024;28;20508;-83
2021/09/24 09:53:08;;;;;;;8.00;3.60;;;;;;;17.67;33.43;100022.66;5013432;28;20054;-84
2021/09/24 09:55:36;;;;;;;9.50;3.20;;;;;;;18.06;32.55;100006.19;4994705;28;20057;-85
2021/09/24 09:58:06;;;;;;;7.80;3.72;;;;;;;18.57;32.05;99988.31;4979631;28;20049;-83
2021/09/24 10:00:33;;;;;;;7.28;3.90;;;;;;;18.85;31.73;99988.22;4979743;28;20045;-85
2021/09/24 10:03:07;;;;;;;9.07;3.13;;;;;;;19.42;29.64;99992.03;4995675;28;20134;-83
2021/09/24 10:05:37;;;;;;;9.20;3.63;;;;;;;19.83;29.29;99985.94;5012740;28;20377;-84
2021/09/24 10:08:20;;;;;;;8.10;3.70;;;;;;;20.08;28.72;99976.81;5011752;28;20072;-84
2021/09/24 10:10:53;;;;;;;9.50;3.70;;;;;;;20.30;28.14;99963.56;5012602;28;20132;-86
2021/09/24 10:13:19;;;;;;;14.13;3.95;;;;;;;20.42;28.38;99966.75;5012260;28;20129;-86
2021/09/24 10:15:44;;;;;;;7.32;4.10;;;;;;;20.68;27.95;99974.75;5013518;28;20128;-85
2021/09/24 10:18:10;;;;;;;6.13;3.72;;;;;;;21.05;27.72;99966.84;4996121;28;20104;-84
2021/09/24 10:20:37;;;;;;;6.70;3.72;;;;;;;21.31;27.56;99960.28;5012214;28;20096;-85
2021/09/24 10:23:03;;;;;;;7.00;4.20;;;;;;;21.24;26.88;99951.97;5012318;28;20045;-84
2021/09/24 10:25:29;;;;;;;11.30;3.58;;;;;;;21.06;26.55;99946.81;5012021;28;20049;-84
2021/09/24 10:27:54;;;;;;;6.15;3.10;;;;;;;20.71;26.89;99939.09;5011837;28;20120;-83
2021/09/24 10:30:25;;;;;;;3.60;2.40;;;;;;;20.56;27.02;99941.66;5011686;28;20056;-84
2021/09/24 10:32:56;;;;;;;7.38;2.75;;;;;;;20.38;27.01;99941.81;4996653;28;20049;-85
2021/09/24 10:35:22;;;;;;;4.43;2.83;;;;;;;20.09;27.55;99917.94;4978935;28;20038;-84
2021/09/24 10:37:48;;;;;;;7.57;2.53;;;;;;;19.85;27.27;99918.75;5012056;28;20053;-84
2021/09/24 10:40:20;;;;;;;4.57;2.30;;;;;;;19.45;28.21;99909.53;5016827;28;20599;-85
2021/09/24 10:42:51;;;;;;;6.53;2.47;;;;;;;19.55;27.91;99909.38;5031852;28;20042;-85
2021/09/24 10:45:31;;;;;;;4.50;2.15;;;;;;;19.57;27.54;99905.50;5015916;28;20646;-85
2021/09/24 10:48:07;;;;;;;15.73;2.08;;;;;;;19.77;27.16;99913.34;5015535;28;20034;-86
2021/09/24 10:50:34;;;;;;;18.75;2.10;;;;;;;19.82;26.62;99910.97;5015901;28;20042;-86
2021/09/24 10:53:24;;;;;;;27.83;3.35;;;;;;;19.76;26.76;99914.34;5015580;28;20057;-83
2021/09/24 10:55:53;;;;;;;4.85;1.58;;;;;;;19.48;25.97;99905.63;5015797;28;20054;-86
2021/09/24 10:58:27;;;;;;;6.85;1.70;;;;;;;19.23;25.99;99893.91;5016649;28;20046;-86
2021/09/24 11:01:05;;;;;;;6.38;1.80;;;;;;;18.88;26.58;99891.22;5016988;28;20494;-84
2021/09/24 11:03:32;;;;;;;4.25;1.30;;;;;;;18.60;26.74;99882.41;4998997;28;20492;-84
2021/09/24 11:06:07;;;;;;;4.55;1.67;;;;;;;18.43;26.87;99888.78;4998919;28;20041;-84
2021/09/24 11:08:33;;;;;;;9.88;1.70;;;;;;;18.34;26.52;99881.59;4998784;28;20058;-83
2021/09/24 11:11:20;;;;;;;8.07;1.65;;;;;;;18.19;27.03;99871.34;5016508;28;20050;-84
2021/09/24 11:13:48;;;;;;;7.20;1.70;;;;;;;17.98;26.92;99859.19;4998942;28;20057;-85
2021/09/24 11:16:36;;;;;;;5.22;1.45;;;;;;;17.91;26.54;99867.94;5014900;28;20049;-84
2021/09/24 11:19:02;;;;;;;4.07;2.17;;;;;;;17.75;26.67;99858.78;5013820;28;20057;-83
2021/09/24 11:21:30;;;;;;;5.45;2.20;;;;;;;17.68;26.33;99864.00;5016604;28;20049;-83
2021/09/24 11:23:57;;;;;;;6.78;2.40;;;;;;;17.67;26.63;99871.22;5016391;28;20053;-85